sensor_id;sensor_type;location;lat;lon;timestamp;P1;P2;P0
54021;PMS7003;39936;51.058;17.220;2024-03-17T00:00:02;100;95;78
54021;PMS7003;39936;51.058;17.220;2024-03-17T00:03:30;233;232;179
54021;PMS7003;39936;51.058;17.220;2024-03-17T00:06:55;144;140;117
54021;PMS7003;39936;51.058;17.220;2024-03-17T00:10:21;148;145;123
54021;PMS7003;39936;51.058;17.220;2024-03-17T00:13:46;95;87;79
54021;PMS7003;39936;51.058;17.220;2024-03-17T00:17:11;91;81;74
54021;PMS7003;39936;51.058;17.220;2024-03-17T00:20:38;98;92;85
54021;PMS7003;39936;51.058;17.220;2024-03-17T00:24:11;126;121;107
54021;PMS7003;39936;51.058;17.220;2024-03-17T00:27:41;137;131;110
54021;PMS7003;39936;51.058;17.220;2024-03-17T00:31:14;123;119;102
54021;PMS7003;39936;51.058;17.220;2024-03-17T00:34:45;105;96;86
54021;PMS7003;39936;51.058;17.220;2024-03-17T00:38:14;57;51;46
54021;PMS7003;39936;51.058;17.220;2024-03-17T00:41:44;91;76;71
54021;PMS7003;39936;51.058;17.220;2024-03-17T00:45:11;56;50;42
54021;PMS7003;39936;51.058;17.220;2024-03-17T00:48:38;77;65;56
54021;PMS7003;39936;51.058;17.220;2024-03-17T00:52:11;90;77;72
54021;PMS7003;39936;51.058;17.220;2024-03-17T00:55:37;101;94;87
54021;PMS7003;39936;51.058;17.220;2024-03-17T00:59:03;74;62;55
54021;PMS7003;39936;51.058;17.220;2024-03-17T01:02:30;91;81;75
54021;PMS7003;39936;51.058;17.220;2024-03-17T01:06:05;92;81;76
54021;PMS7003;39936;51.058;17.220;2024-03-17T01:09:38;79;66;57
54021;PMS7003;39936;51.058;17.220;2024-03-17T01:13:08;75;64;55
54021;PMS7003;39936;51.058;17.220;2024-03-17T01:16:37;69;58;50
54021;PMS7003;39936;51.058;17.220;2024-03-17T01:20:02;76;66;60
54021;PMS7003;39936;51.058;17.220;2024-03-17T01:23:32;108;100;90
54021;PMS7003;39936;51.058;17.220;2024-03-17T01:27:00;87;72;66
54021;PMS7003;39936;51.058;17.220;2024-03-17T01:30:30;85;73;63
54021;PMS7003;39936;51.058;17.220;2024-03-17T01:33:57;63;55;46
54021;PMS7003;39936;51.058;17.220;2024-03-17T01:37:23;93;78;73
54021;PMS7003;39936;51.058;17.220;2024-03-17T01:40:49;105;99;92
54021;PMS7003;39936;51.058;17.220;2024-03-17T01:44:28;74;64;58
54021;PMS7003;39936;51.058;17.220;2024-03-17T01:51:32;52;46;40
54021;PMS7003;39936;51.058;17.220;2024-03-17T01:55:00;52;45;38
54021;PMS7003;39936;51.058;17.220;2024-03-17T01:58:27;62;54;47
54021;PMS7003;39936;51.058;17.220;2024-03-17T02:01:56;54;48;40
54021;PMS7003;39936;51.058;17.220;2024-03-17T02:05:13;10;10;8
54021;PMS7003;39936;51.058;17.220;2024-03-17T02:12:18;86;73;66
54021;PMS7003;39936;51.058;17.220;2024-03-17T02:15:43;89;75;70
54021;PMS7003;39936;51.058;17.220;2024-03-17T02:19:07;42;38;33
54021;PMS7003;39936;51.058;17.220;2024-03-17T02:22:28;38;33;30
54021;PMS7003;39936;51.058;17.220;2024-03-17T02:25:50;59;51;44
54021;PMS7003;39936;51.058;17.220;2024-03-17T02:29:23;95;84;76
54021;PMS7003;39936;51.058;17.220;2024-03-17T02:32:52;85;73;66
54021;PMS7003;39936;51.058;17.220;2024-03-17T02:36:26;86;71;64
54021;PMS7003;39936;51.058;17.220;2024-03-17T02:39:59;103;92;87
54021;PMS7003;39936;51.058;17.220;2024-03-17T02:43:36;115;107;99
54021;PMS7003;39936;51.058;17.220;2024-03-17T02:47:02;89;76;70
54021;PMS7003;39936;51.058;17.220;2024-03-17T02:50:28;110;100;81
54021;PMS7003;39936;51.058;17.220;2024-03-17T02:53:57;102;93;86
54021;PMS7003;39936;51.058;17.220;2024-03-17T02:57:25;67;59;52
54021;PMS7003;39936;51.058;17.220;2024-03-17T03:01:03;57;50;42
54021;PMS7003;39936;51.058;17.220;2024-03-17T03:04:27;60;52;44
54021;PMS7003;39936;51.058;17.220;2024-03-17T03:14:39;59;52;43
54021;PMS7003;39936;51.058;17.220;2024-03-17T03:18:19;107;96;88
54021;PMS7003;39936;51.058;17.220;2024-03-17T03:21:49;82;71;66
54021;PMS7003;39936;51.058;17.220;2024-03-17T03:25:14;70;59;53
54021;PMS7003;39936;51.058;17.220;2024-03-17T03:28:43;81;70;65
54021;PMS7003;39936;51.058;17.220;2024-03-17T03:32:04;70;60;54
54021;PMS7003;39936;51.058;17.220;2024-03-17T03:35:29;63;59;54
54021;PMS7003;39936;51.058;17.220;2024-03-17T03:38:54;58;54;46
54021;PMS7003;39936;51.058;17.220;2024-03-17T03:42:24;57;51;42
54021;PMS7003;39936;51.058;17.220;2024-03-17T03:45:51;78;66;57
54021;PMS7003;39936;51.058;17.220;2024-03-17T03:49:20;52;46;39
54021;PMS7003;39936;51.058;17.220;2024-03-17T03:52:44;65;57;48
54021;PMS7003;39936;51.058;17.220;2024-03-17T03:56:13;34;30;27
54021;PMS7003;39936;51.058;17.220;2024-03-17T03:59:38;30;27;24
54021;PMS7003;39936;51.058;17.220;2024-03-17T04:03:06;51;44;38
54021;PMS7003;39936;51.058;17.220;2024-03-17T04:06:31;86;74;66
54021;PMS7003;39936;51.058;17.220;2024-03-17T04:10:00;67;58;48
54021;PMS7003;39936;51.058;17.220;2024-03-17T04:13:26;32;31;28
54021;PMS7003;39936;51.058;17.220;2024-03-17T04:16:59;42;36;32
54021;PMS7003;39936;51.058;17.220;2024-03-17T04:20:20;65;56;46
54021;PMS7003;39936;51.058;17.220;2024-03-17T04:23:44;64;55;45
54021;PMS7003;39936;51.058;17.220;2024-03-17T04:27:06;75;64;59
54021;PMS7003;39936;51.058;17.220;2024-03-17T04:30:31;111;108;99
54021;PMS7003;39936;51.058;17.220;2024-03-17T04:34:02;82;68;64
54021;PMS7003;39936;51.058;17.220;2024-03-17T04:37:35;90;76;71
54021;PMS7003;39936;51.058;17.220;2024-03-17T04:40:56;98;91;86
54021;PMS7003;39936;51.058;17.220;2024-03-17T04:44:44;99;87;82
54021;PMS7003;39936;51.058;17.220;2024-03-17T04:48:10;94;82;78
54021;PMS7003;39936;51.058;17.220;2024-03-17T04:51:01;0;0;0
54021;PMS7003;39936;51.058;17.220;2024-03-17T04:54:22;92;81;74
54021;PMS7003;39936;51.058;17.220;2024-03-17T04:57:48;77;65;57
54021;PMS7003;39936;51.058;17.220;2024-03-17T05:01:13;79;67;60
54021;PMS7003;39936;51.058;17.220;2024-03-17T05:04:34;77;65;58
54021;PMS7003;39936;51.058;17.220;2024-03-17T05:08:03;69;60;56
54021;PMS7003;39936;51.058;17.220;2024-03-17T05:11:26;56;50;46
54021;PMS7003;39936;51.058;17.220;2024-03-17T05:14:50;85;80;73
54021;PMS7003;39936;51.058;17.220;2024-03-17T05:18:13;78;66;62
54021;PMS7003;39936;51.058;17.220;2024-03-17T05:21:43;93;81;76
54021;PMS7003;39936;51.058;17.220;2024-03-17T05:25:05;72;61;54
54021;PMS7003;39936;51.058;17.220;2024-03-17T05:28:34;92;86;81
54021;PMS7003;39936;51.058;17.220;2024-03-17T05:32:01;85;74;70
54021;PMS7003;39936;51.058;17.220;2024-03-17T05:35:25;82;74;67
54021;PMS7003;39936;51.058;17.220;2024-03-17T05:38:46;67;62;59
54021;PMS7003;39936;51.058;17.220;2024-03-17T05:42:11;75;64;59
54021;PMS7003;39936;51.058;17.220;2024-03-17T05:45:33;74;64;59
54021;PMS7003;39936;51.058;17.220;2024-03-17T05:48:58;93;83;80
54021;PMS7003;39936;51.058;17.220;2024-03-17T05:52:23;98;88;83
54021;PMS7003;39936;51.058;17.220;2024-03-17T05:55:45;100;97;93
54021;PMS7003;39936;51.058;17.220;2024-03-17T05:59:11;113;109;102
54021;PMS7003;39936;51.058;17.220;2024-03-17T06:02:36;136;133;118
54021;PMS7003;39936;51.058;17.220;2024-03-17T06:06:00;129;126;112
54021;PMS7003;39936;51.058;17.220;2024-03-17T06:09:26;81;68;63
54021;PMS7003;39936;51.058;17.220;2024-03-17T06:12:52;104;101;93
54021;PMS7003;39936;51.058;17.220;2024-03-17T06:16:13;141;136;122
54021;PMS7003;39936;51.058;17.220;2024-03-17T06:19:34;104;94;83
54021;PMS7003;39936;51.058;17.220;2024-03-17T06:22:55;98;87;83
54021;PMS7003;39936;51.058;17.220;2024-03-17T06:26:19;116;107;103
54021;PMS7003;39936;51.058;17.220;2024-03-17T06:29:45;119;115;104
54021;PMS7003;39936;51.058;17.220;2024-03-17T06:33:11;96;94;82
54021;PMS7003;39936;51.058;17.220;2024-03-17T06:36:33;40;38;32
54021;PMS7003;39936;51.058;17.220;2024-03-17T06:39:58;162;161;131
54021;PMS7003;39936;51.058;17.220;2024-03-17T06:43:24;199;199;152
54021;PMS7003;39936;51.058;17.220;2024-03-17T06:46:53;152;148;107
54021;PMS7003;39936;51.058;17.220;2024-03-17T06:50:18;82;70;58
54021;PMS7003;39936;51.058;17.220;2024-03-17T06:53:45;101;91;72
54021;PMS7003;39936;51.058;17.220;2024-03-17T06:57:14;159;157;127
54021;PMS7003;39936;51.058;17.220;2024-03-17T07:00:44;101;93;71
54021;PMS7003;39936;51.058;17.220;2024-03-17T07:04:18;101;95;84
54021;PMS7003;39936;51.058;17.220;2024-03-17T07:07:41;80;68;62
54021;PMS7003;39936;51.058;17.220;2024-03-17T07:11:14;211;208;158
54021;PMS7003;39936;51.058;17.220;2024-03-17T07:14:45;95;82;72
54021;PMS7003;39936;51.058;17.220;2024-03-17T07:18:24;118;112;96
54021;PMS7003;39936;51.058;17.220;2024-03-17T07:21:56;127;124;110
54021;PMS7003;39936;51.058;17.220;2024-03-17T07:25:22;71;61;49
54021;PMS7003;39936;51.058;17.220;2024-03-17T07:28:50;85;78;66
54021;PMS7003;39936;51.058;17.220;2024-03-17T07:32:16;183;181;141
54021;PMS7003;39936;51.058;17.220;2024-03-17T07:35:48;75;67;50
54021;PMS7003;39936;51.058;17.220;2024-03-17T07:39:22;114;108;95
54021;PMS7003;39936;51.058;17.220;2024-03-17T07:42:57;157;156;128
54021;PMS7003;39936;51.058;17.220;2024-03-17T07:46:32;142;137;107
54021;PMS7003;39936;51.058;17.220;2024-03-17T07:49:59;185;182;138
54021;PMS7003;39936;51.058;17.220;2024-03-17T07:53:36;223;221;165
54021;PMS7003;39936;51.058;17.220;2024-03-17T07:57:06;211;211;157
54021;PMS7003;39936;51.058;17.220;2024-03-17T08:00:35;115;109;86
54021;PMS7003;39936;51.058;17.220;2024-03-17T08:04:06;203;201;156
54021;PMS7003;39936;51.058;17.220;2024-03-17T08:07:44;165;162;127
54021;PMS7003;39936;51.058;17.220;2024-03-17T08:11:12;176;175;141
54021;PMS7003;39936;51.058;17.220;2024-03-17T08:14:34;105;96;84
54021;PMS7003;39936;51.058;17.220;2024-03-17T08:17:55;106;101;90
54021;PMS7003;39936;51.058;17.220;2024-03-17T08:21:23;135;131;112
54021;PMS7003;39936;51.058;17.220;2024-03-17T08:24:46;173;173;137
54021;PMS7003;39936;51.058;17.220;2024-03-17T08:28:15;186;185;131
54021;PMS7003;39936;51.058;17.220;2024-03-17T08:31:45;161;159;132
54021;PMS7003;39936;51.058;17.220;2024-03-17T08:35:15;117;114;100
54021;PMS7003;39936;51.058;17.220;2024-03-17T08:38:43;104;103;92
54021;PMS7003;39936;51.058;17.220;2024-03-17T08:42:15;152;151;131
54021;PMS7003;39936;51.058;17.220;2024-03-17T08:45:41;228;227;165
54021;PMS7003;39936;51.058;17.220;2024-03-17T08:49:11;141;137;120
54021;PMS7003;39936;51.058;17.220;2024-03-17T08:52:45;151;150;127
54021;PMS7003;39936;51.058;17.220;2024-03-17T08:56:07;98;89;81
54021;PMS7003;39936;51.058;17.220;2024-03-17T08:59:33;104;93;87
54021;PMS7003;39936;51.058;17.220;2024-03-17T09:03:04;102;96;85
54021;PMS7003;39936;51.058;17.220;2024-03-17T09:06:36;102;92;83
54021;PMS7003;39936;51.058;17.220;2024-03-17T09:10:09;120;116;105
54021;PMS7003;39936;51.058;17.220;2024-03-17T09:13:37;123;122;105
54021;PMS7003;39936;51.058;17.220;2024-03-17T09:17:05;134;130;115
54021;PMS7003;39936;51.058;17.220;2024-03-17T09:20:38;115;106;93
54021;PMS7003;39936;51.058;17.220;2024-03-17T09:24:11;117;112;98
54021;PMS7003;39936;51.058;17.220;2024-03-17T09:27:40;120;114;98
54021;PMS7003;39936;51.058;17.220;2024-03-17T09:31:04;190;186;141
54021;PMS7003;39936;51.058;17.220;2024-03-17T09:34:26;96;88;73
54021;PMS7003;39936;51.058;17.220;2024-03-17T09:37:53;143;139;114
54021;PMS7003;39936;51.058;17.220;2024-03-17T09:41:19;123;120;106
54021;PMS7003;39936;51.058;17.220;2024-03-17T09:44:52;143;142;121
54021;PMS7003;39936;51.058;17.220;2024-03-17T09:48:19;131;126;102
54021;PMS7003;39936;51.058;17.220;2024-03-17T09:51:49;133;126;107
54021;PMS7003;39936;51.058;17.220;2024-03-17T09:55:16;111;106;94
54021;PMS7003;39936;51.058;17.220;2024-03-17T09:58:40;97;91;73
54021;PMS7003;39936;51.058;17.220;2024-03-17T10:02:02;180;177;135
54021;PMS7003;39936;51.058;17.220;2024-03-17T10:05:29;122;116;90
54021;PMS7003;39936;51.058;17.220;2024-03-17T10:08:57;117;112;98
54021;PMS7003;39936;51.058;17.220;2024-03-17T10:12:33;115;106;91
54021;PMS7003;39936;51.058;17.220;2024-03-17T10:15:59;110;104;89
54021;PMS7003;39936;51.058;17.220;2024-03-17T10:19:25;119;112;98
54021;PMS7003;39936;51.058;17.220;2024-03-17T10:26:25;181;180;122
54021;PMS7003;39936;51.058;17.220;2024-03-17T10:29:53;131;128;106
54021;PMS7003;39936;51.058;17.220;2024-03-17T10:33:22;147;142;116
54021;PMS7003;39936;51.058;17.220;2024-03-17T10:36:52;97;89;78
54021;PMS7003;39936;51.058;17.220;2024-03-17T10:40:20;102;93;81
54021;PMS7003;39936;51.058;17.220;2024-03-17T10:43:43;195;195;141
54021;PMS7003;39936;51.058;17.220;2024-03-17T10:50:52;132;128;93
54021;PMS7003;39936;51.058;17.220;2024-03-17T10:54:24;65;58;51
54021;PMS7003;39936;51.058;17.220;2024-03-17T10:57:45;291;289;207
54021;PMS7003;39936;51.058;17.220;2024-03-17T11:01:07;192;189;148
54021;PMS7003;39936;51.058;17.220;2024-03-17T11:04:40;188;184;144
54021;PMS7003;39936;51.058;17.220;2024-03-17T11:08:06;81;69;63
54021;PMS7003;39936;51.058;17.220;2024-03-17T11:11:36;112;107;94
54021;PMS7003;39936;51.058;17.220;2024-03-17T11:18:42;107;100;83
54021;PMS7003;39936;51.058;17.220;2024-03-17T11:29:01;91;79;67
54021;PMS7003;39936;51.058;17.220;2024-03-17T11:32:26;100;94;86
54021;PMS7003;39936;51.058;17.220;2024-03-17T11:36:19;92;78;73
54021;PMS7003;39936;51.058;17.220;2024-03-17T11:43:01;115;111;107
54021;PMS7003;39936;51.058;17.220;2024-03-17T11:46:29;261;259;247
54021;PMS7003;39936;51.058;17.220;2024-03-17T11:49:50;293;291;286
54021;PMS7003;39936;51.058;17.220;2024-03-17T11:53:19;130;126;119
54021;PMS7003;39936;51.058;17.220;2024-03-17T11:56:48;164;161;114
54021;PMS7003;39936;51.058;17.220;2024-03-17T12:00:15;325;325;289
54021;PMS7003;39936;51.058;17.220;2024-03-17T12:03:45;103;93;89
54021;PMS7003;39936;51.058;17.220;2024-03-17T12:07:11;184;183;162
54021;PMS7003;39936;51.058;17.220;2024-03-17T12:10:30;122;119;115
54021;PMS7003;39936;51.058;17.220;2024-03-17T12:13:53;223;221;175
54021;PMS7003;39936;51.058;17.220;2024-03-17T12:17:15;153;153;133
54021;PMS7003;39936;51.058;17.220;2024-03-17T12:20:39;351;351;342
54021;PMS7003;39936;51.058;17.220;2024-03-17T12:23:57;251;251;246
54021;PMS7003;39936;51.058;17.220;2024-03-17T12:27:25;366;363;330
54021;PMS7003;39936;51.058;17.220;2024-03-17T12:30:58;152;148;125
54021;PMS7003;39936;51.058;17.220;2024-03-17T12:34:27;234;234;189
54021;PMS7003;39936;51.058;17.220;2024-03-17T12:37:55;107;97;90
54021;PMS7003;39936;51.058;17.220;2024-03-17T12:41:26;175;172;151
54021;PMS7003;39936;51.058;17.220;2024-03-17T12:44:54;183;180;162
54021;PMS7003;39936;51.058;17.220;2024-03-17T12:48:20;202;199;184
54021;PMS7003;39936;51.058;17.220;2024-03-17T12:51:42;238;237;224
54021;PMS7003;39936;51.058;17.220;2024-03-17T12:55:09;193;193;158
54021;PMS7003;39936;51.058;17.220;2024-03-17T12:58:46;183;180;143
54021;PMS7003;39936;51.058;17.220;2024-03-17T13:02:14;87;73;66
54021;PMS7003;39936;51.058;17.220;2024-03-17T13:05:38;140;134;118
54021;PMS7003;39936;51.058;17.220;2024-03-17T13:09:07;153;146;135
54021;PMS7003;39936;51.058;17.220;2024-03-17T13:12:35;136;130;124
54021;PMS7003;39936;51.058;17.220;2024-03-17T13:15:59;146;140;133
54021;PMS7003;39936;51.058;17.220;2024-03-17T13:19:27;238;236;228
54021;PMS7003;39936;51.058;17.220;2024-03-17T13:22:55;265;262;244
54021;PMS7003;39936;51.058;17.220;2024-03-17T13:26:21;240;238;173
54021;PMS7003;39936;51.058;17.220;2024-03-17T13:29:48;130;127;124
54021;PMS7003;39936;51.058;17.220;2024-03-17T13:33:03;140;137;126
54021;PMS7003;39936;51.058;17.220;2024-03-17T13:36:39;174;173;153
54021;PMS7003;39936;51.058;17.220;2024-03-17T13:40:03;147;146;115
54021;PMS7003;39936;51.058;17.220;2024-03-17T13:43:21;95;84;80
54021;PMS7003;39936;51.058;17.220;2024-03-17T13:46:48;149;145;131
54021;PMS7003;39936;51.058;17.220;2024-03-17T13:50:12;184;183;158
54021;PMS7003;39936;51.058;17.220;2024-03-17T13:53:41;217;215;206
54021;PMS7003;39936;51.058;17.220;2024-03-17T13:57:11;199;197;176
54021;PMS7003;39936;51.058;17.220;2024-03-17T14:00:34;279;276;207
54021;PMS7003;39936;51.058;17.220;2024-03-17T14:04:00;223;223;189
54021;PMS7003;39936;51.058;17.220;2024-03-17T14:07:29;176;174;151
54021;PMS7003;39936;51.058;17.220;2024-03-17T14:10:59;122;116;113
54021;PMS7003;39936;51.058;17.220;2024-03-17T14:14:27;148;148;128
54021;PMS7003;39936;51.058;17.220;2024-03-17T14:17:53;123;118;109
54021;PMS7003;39936;51.058;17.220;2024-03-17T14:21:19;103;96;90
54021;PMS7003;39936;51.058;17.220;2024-03-17T14:24:50;85;76;69
54021;PMS7003;39936;51.058;17.220;2024-03-17T14:28:12;145;143;128
54021;PMS7003;39936;51.058;17.220;2024-03-17T14:31:39;87;81;76
54021;PMS7003;39936;51.058;17.220;2024-03-17T14:35:04;168;167;141
54021;PMS7003;39936;51.058;17.220;2024-03-17T14:38:35;144;140;125
54021;PMS7003;39936;51.058;17.220;2024-03-17T14:42:04;223;221;210
54021;PMS7003;39936;51.058;17.220;2024-03-17T14:45:30;238;236;224
54021;PMS7003;39936;51.058;17.220;2024-03-17T14:48:59;228;226;202
54021;PMS7003;39936;51.058;17.220;2024-03-17T14:52:22;188;184;179
54021;PMS7003;39936;51.058;17.220;2024-03-17T14:55:47;210;209;178
54021;PMS7003;39936;51.058;17.220;2024-03-17T14:59:18;174;171;139
54021;PMS7003;39936;51.058;17.220;2024-03-17T15:02:45;113;107;92
54021;PMS7003;39936;51.058;17.220;2024-03-17T15:06:14;76;65;55
54021;PMS7003;39936;51.058;17.220;2024-03-17T15:09:41;111;105;95
54021;PMS7003;39936;51.058;17.220;2024-03-17T15:13:05;91;80;73
54021;PMS7003;39936;51.058;17.220;2024-03-17T15:16:31;85;76;68
54021;PMS7003;39936;51.058;17.220;2024-03-17T15:19:57;82;73;66
54021;PMS7003;39936;51.058;17.220;2024-03-17T15:23:16;74;65;56
54021;PMS7003;39936;51.058;17.220;2024-03-17T15:26:39;119;118;101
54021;PMS7003;39936;51.058;17.220;2024-03-17T15:30:10;114;107;97
54021;PMS7003;39936;51.058;17.220;2024-03-17T15:33:40;71;61;52
54021;PMS7003;39936;51.058;17.220;2024-03-17T15:37:09;104;97;91
54021;PMS7003;39936;51.058;17.220;2024-03-17T15:40:31;90;82;74
54021;PMS7003;39936;51.058;17.220;2024-03-17T15:43:58;81;69;61
54021;PMS7003;39936;51.058;17.220;2024-03-17T15:47:26;103;98;89
54021;PMS7003;39936;51.058;17.220;2024-03-17T15:50:55;77;70;62
54021;PMS7003;39936;51.058;17.220;2024-03-17T15:54:18;114;107;95
54021;PMS7003;39936;51.058;17.220;2024-03-17T15:57:44;76;63;57
54021;PMS7003;39936;51.058;17.220;2024-03-17T16:01:14;116;110;94
54021;PMS7003;39936;51.058;17.220;2024-03-17T16:04:36;98;88;80
54021;PMS7003;39936;51.058;17.220;2024-03-17T16:08:01;42;37;34
54021;PMS7003;39936;51.058;17.220;2024-03-17T16:11:30;104;97;85
54021;PMS7003;39936;51.058;17.220;2024-03-17T16:14:52;68;59;52
54021;PMS7003;39936;51.058;17.220;2024-03-17T16:18:25;65;55;47
54021;PMS7003;39936;51.058;17.220;2024-03-17T16:21:51;34;32;28
54021;PMS7003;39936;51.058;17.220;2024-03-17T16:25:10;8;8;8
54021;PMS7003;39936;51.058;17.220;2024-03-17T16:28:32;22;22;20
54021;PMS7003;39936;51.058;17.220;2024-03-17T16:31:53;50;45;39
54021;PMS7003;39936;51.058;17.220;2024-03-17T16:35:19;46;42;35
54021;PMS7003;39936;51.058;17.220;2024-03-17T16:38:48;54;49;41
54021;PMS7003;39936;51.058;17.220;2024-03-17T16:42:09;70;58;47
54021;PMS7003;39936;51.058;17.220;2024-03-17T16:45:34;24;23;21
54021;PMS7003;39936;51.058;17.220;2024-03-17T16:49:06;23;23;22
54021;PMS7003;39936;51.058;17.220;2024-03-17T16:52:35;53;48;42
54021;PMS7003;39936;51.058;17.220;2024-03-17T16:55:58;29;27;25
54021;PMS7003;39936;51.058;17.220;2024-03-17T16:59:20;64;56;47
54021;PMS7003;39936;51.058;17.220;2024-03-17T17:02:45;37;34;31
54021;PMS7003;39936;51.058;17.220;2024-03-17T17:06:12;24;23;22
54021;PMS7003;39936;51.058;17.220;2024-03-17T17:09:35;34;32;29
54021;PMS7003;39936;51.058;17.220;2024-03-17T17:12:55;35;32;29
54021;PMS7003;39936;51.058;17.220;2024-03-17T17:16:13;33;31;28
54021;PMS7003;39936;51.058;17.220;2024-03-17T17:19:38;41;37;31
54021;PMS7003;39936;51.058;17.220;2024-03-17T17:22:55;31;29;25
54021;PMS7003;39936;51.058;17.220;2024-03-17T17:26:21;8;8;7
54021;PMS7003;39936;51.058;17.220;2024-03-17T17:29:45;2;1;0
54021;PMS7003;39936;51.058;17.220;2024-03-17T17:33:09;12;11;10
54021;PMS7003;39936;51.058;17.220;2024-03-17T17:36:28;16;15;14
54021;PMS7003;39936;51.058;17.220;2024-03-17T17:39:45;6;6;5
54021;PMS7003;39936;51.058;17.220;2024-03-17T17:43:09;25;24;22
54021;PMS7003;39936;51.058;17.220;2024-03-17T17:46:27;31;30;26
54021;PMS7003;39936;51.058;17.220;2024-03-17T17:49:47;42;39;33
54021;PMS7003;39936;51.058;17.220;2024-03-17T17:53:18;24;24;22
54021;PMS7003;39936;51.058;17.220;2024-03-17T17:56:42;38;36;31
54021;PMS7003;39936;51.058;17.220;2024-03-17T18:00:10;31;29;24
54021;PMS7003;39936;51.058;17.220;2024-03-17T18:03:32;19;19;19
54021;PMS7003;39936;51.058;17.220;2024-03-17T18:07:00;27;27;25
54021;PMS7003;39936;51.058;17.220;2024-03-17T18:10:26;42;39;33
54021;PMS7003;39936;51.058;17.220;2024-03-17T18:13:46;36;34;31
54021;PMS7003;39936;51.058;17.220;2024-03-17T18:17:08;21;21;20
54021;PMS7003;39936;51.058;17.220;2024-03-17T18:20:39;18;18;16
54021;PMS7003;39936;51.058;17.220;2024-03-17T18:24:08;56;48;41
54021;PMS7003;39936;51.058;17.220;2024-03-17T18:27:33;57;50;42
54021;PMS7003;39936;51.058;17.220;2024-03-17T18:31:01;57;49;43
54021;PMS7003;39936;51.058;17.220;2024-03-17T18:34:29;22;21;19
54021;PMS7003;39936;51.058;17.220;2024-03-17T18:37:51;30;29;28
54021;PMS7003;39936;51.058;17.220;2024-03-17T18:41:13;20;19;18
54021;PMS7003;39936;51.058;17.220;2024-03-17T18:44:34;32;29;27
54021;PMS7003;39936;51.058;17.220;2024-03-17T18:47:57;44;38;33
54021;PMS7003;39936;51.058;17.220;2024-03-17T18:51:20;47;42;35
54021;PMS7003;39936;51.058;17.220;2024-03-17T18:54:46;40;36;31
54021;PMS7003;39936;51.058;17.220;2024-03-17T18:58:08;54;47;40
54021;PMS7003;39936;51.058;17.220;2024-03-17T19:01:32;35;32;27
54021;PMS7003;39936;51.058;17.220;2024-03-17T19:04:55;30;29;26
54021;PMS7003;39936;51.058;17.220;2024-03-17T19:08:23;52;46;39
54021;PMS7003;39936;51.058;17.220;2024-03-17T19:11:45;4;4;4
54021;PMS7003;39936;51.058;17.220;2024-03-17T19:15:13;13;13;11
54021;PMS7003;39936;51.058;17.220;2024-03-17T19:18:40;40;36;31
54021;PMS7003;39936;51.058;17.220;2024-03-17T19:22:00;4;4;4
54021;PMS7003;39936;51.058;17.220;2024-03-17T19:25:25;9;9;9
54021;PMS7003;39936;51.058;17.220;2024-03-17T19:28:53;35;33;29
54021;PMS7003;39936;51.058;17.220;2024-03-17T19:32:10;42;40;35
54021;PMS7003;39936;51.058;17.220;2024-03-17T19:35:35;12;12;11
54021;PMS7003;39936;51.058;17.220;2024-03-17T19:39:07;13;13;12
54021;PMS7003;39936;51.058;17.220;2024-03-17T19:42:33;23;22;19
54021;PMS7003;39936;51.058;17.220;2024-03-17T19:49:35;18;18;17
54021;PMS7003;39936;51.058;17.220;2024-03-17T19:53:00;6;6;5
54021;PMS7003;39936;51.058;17.220;2024-03-17T19:56:39;26;25;23
54021;PMS7003;39936;51.058;17.220;2024-03-17T20:00:09;15;15;14
54021;PMS7003;39936;51.058;17.220;2024-03-17T20:03:36;9;9;8
54021;PMS7003;39936;51.058;17.220;2024-03-17T20:07:06;16;16;16
54021;PMS7003;39936;51.058;17.220;2024-03-17T20:10:29;4;4;3
54021;PMS7003;39936;51.058;17.220;2024-03-17T20:13:58;40;38;32
54021;PMS7003;39936;51.058;17.220;2024-03-17T20:17:18;14;14;13
54021;PMS7003;39936;51.058;17.220;2024-03-17T20:21:01;24;24;22
54021;PMS7003;39936;51.058;17.220;2024-03-17T20:24:22;8;8;7
54021;PMS7003;39936;51.058;17.220;2024-03-17T20:27:41;20;20;20
54021;PMS7003;39936;51.058;17.220;2024-03-17T20:34:41;50;44;36
54021;PMS7003;39936;51.058;17.220;2024-03-17T20:38:19;28;27;25
54021;PMS7003;39936;51.058;17.220;2024-03-17T20:41:54;11;11;10
54021;PMS7003;39936;51.058;17.220;2024-03-17T20:45:30;61;49;43
54021;PMS7003;39936;51.058;17.220;2024-03-17T20:49:03;14;14;13
54021;PMS7003;39936;51.058;17.220;2024-03-17T20:52:49;4;4;3
54021;PMS7003;39936;51.058;17.220;2024-03-17T20:56:17;11;10;10
54021;PMS7003;39936;51.058;17.220;2024-03-17T20:59:43;48;42;37
54021;PMS7003;39936;51.058;17.220;2024-03-17T21:03:14;20;18;16
54021;PMS7003;39936;51.058;17.220;2024-03-17T21:06:36;22;22;21
54021;PMS7003;39936;51.058;17.220;2024-03-17T21:09:56;43;40;34
54021;PMS7003;39936;51.058;17.220;2024-03-17T21:13:15;16;15;13
54021;PMS7003;39936;51.058;17.220;2024-03-17T21:16:41;50;44;38
54021;PMS7003;39936;51.058;17.220;2024-03-17T21:20:07;68;59;52
54021;PMS7003;39936;51.058;17.220;2024-03-17T21:23:43;70;58;52
54021;PMS7003;39936;51.058;17.220;2024-03-17T21:27:10;43;39;33
54021;PMS7003;39936;51.058;17.220;2024-03-17T21:30:35;56;52;46
54021;PMS7003;39936;51.058;17.220;2024-03-17T21:33:53;2;2;1
54021;PMS7003;39936;51.058;17.220;2024-03-17T21:37:10;27;26;22
54021;PMS7003;39936;51.058;17.220;2024-03-17T21:40:32;23;22;19
54021;PMS7003;39936;51.058;17.220;2024-03-17T21:43:57;30;28;25
54021;PMS7003;39936;51.058;17.220;2024-03-17T21:47:19;46;43;36
54021;PMS7003;39936;51.058;17.220;2024-03-17T21:50:39;3;3;3
54021;PMS7003;39936;51.058;17.220;2024-03-17T21:53:57;7;7;6
54021;PMS7003;39936;51.058;17.220;2024-03-17T21:57:22;12;12;11
54021;PMS7003;39936;51.058;17.220;2024-03-17T22:00:48;12;12;12
54021;PMS7003;39936;51.058;17.220;2024-03-17T22:04:06;4;4;4
54021;PMS7003;39936;51.058;17.220;2024-03-17T22:07:34;21;21;19